Time;durP1;ratioP1;P1;durP2;ratioP2;P2;SDS_P1;SDS_P2;PMS_P1;PMS_P2;Temp;Humidity;BMP_temperature;BMP_pressure;BME280_temperature;BME280_humidity;BME280_pressure;Samples;Min_cycle;Max_cycle;Signal;HPM_P1;HPM_P2
2022/02/16 00:00:56;;;;;;;2.97;0.90;;;;;;;;;;4972599;28;20050;-68
2022/02/16 00:03:22;;;;;;;3.13;1.00;;;;;;;;;;4972094;28;20057;-67
2022/02/16 00:05:51;;;;;;;3.47;1.08;;;;;;;;;;4973005;28;20062;-67
2022/02/16 00:08:18;;;;;;;2.55;0.98;;;;;;;;;;4976364;28;20081;-68
2022/02/16 00:10:44;;;;;;;4.65;1.10;;;;;;;;;;4976274;28;20043;-67
2022/02/16 00:13:11;;;;;;;1.38;0.80;;;;;;;;;;4975934;28;20078;-67
2022/02/16 00:15:37;;;;;;;4.55;1.15;;;;;;;;;;4976206;28;20109;-67
2022/02/16 00:18:05;;;;;;;1.60;1.00;;;;;;;;;;4976277;28;20470;-67
2022/02/16 00:20:32;;;;;;;5.47;0.98;;;;;;;;;;4991208;28;20473;-67
2022/02/16 00:22:58;;;;;;;4.75;1.00;;;;;;;;;;4975939;28;20097;-67
2022/02/16 00:25:25;;;;;;;1.55;1.05;;;;;;;;;;4975832;28;20098;-67
2022/02/16 00:27:52;;;;;;;7.65;1.65;;;;;;;;;;4976241;28;20081;-68
2022/02/16 00:30:18;;;;;;;3.22;1.20;;;;;;;;;;4975920;28;20482;-67
2022/02/16 00:32:45;;;;;;;2.22;1.05;;;;;;;;;;4976120;28;20407;-68
2022/02/16 00:35:12;;;;;;;3.40;1.35;;;;;;;;;;4975727;28;20171;-68
2022/02/16 00:37:38;;;;;;;3.95;1.00;;;;;;;;;;4975952;28;20054;-68
2022/02/16 00:40:05;;;;;;;4.30;1.20;;;;;;;;;;4975876;28;20105;-68
2022/02/16 00:42:32;;;;;;;2.15;0.88;;;;;;;;;;4975602;28;20055;-68
2022/02/16 00:44:59;;;;;;;3.85;1.17;;;;;;;;;;4975637;28;20122;-67
2022/02/16 00:47:26;;;;;;;3.10;0.90;;;;;;;;;;4975691;28;20113;-67
2022/02/16 00:49:52;;;;;;;2.42;0.73;;;;;;;;;;4975711;28;20047;-68
2022/02/16 00:52:20;;;;;;;4.72;1.67;;;;;;;;;;4975428;28;20050;-69
2022/02/16 00:54:47;;;;;;;4.32;1.15;;;;;;;;;;4975538;28;20051;-68
2022/02/16 00:57:16;;;;;;;3.70;0.90;;;;;;;;;;4975586;28;20055;-68
2022/02/16 00:59:42;;;;;;;3.40;0.85;;;;;;;;;;4975993;28;20051;-68
2022/02/16 01:02:09;;;;;;;3.92;0.95;;;;;;;;;;4975404;28;20058;-68
2022/02/16 01:04:35;;;;;;;1.85;0.80;;;;;;;;;;4990020;28;20113;-68
2022/02/16 01:07:04;;;;;;;4.10;1.55;;;;;;;;;;4975464;28;20051;-68
2022/02/16 01:09:31;;;;;;;4.18;0.95;;;;;;;;;;4975109;28;20054;-69
2022/02/16 01:11:57;;;;;;;3.30;1.20;;;;;;;;;;4990111;28;20106;-68
2022/02/16 01:14:24;;;;;;;3.78;0.70;;;;;;;;;;4974893;28;20113;-68
2022/02/16 01:16:50;;;;;;;3.20;0.90;;;;;;;;;;4975184;28;20558;-68
2022/02/16 01:19:17;;;;;;;4.97;1.00;;;;;;;;;;4974361;28;20055;-68
2022/02/16 01:21:43;;;;;;;4.20;0.82;;;;;;;;;;4975093;28;20470;-68
2022/02/16 01:24:10;;;;;;;1.88;0.70;;;;;;;;;;4974460;28;20089;-68
2022/02/16 01:26:37;;;;;;;3.10;0.60;;;;;;;;;;4974862;28;20054;-68
2022/02/16 01:29:03;;;;;;;3.03;0.90;;;;;;;;;;4975012;28;20051;-68
2022/02/16 01:31:30;;;;;;;2.50;0.90;;;;;;;;;;4974746;28;20051;-68
2022/02/16 01:33:59;;;;;;;2.60;0.80;;;;;;;;;;4974738;28;20050;-69
2022/02/16 01:36:25;;;;;;;4.65;0.70;;;;;;;;;;4974987;28;20097;-68
2022/02/16 01:38:52;;;;;;;4.32;0.90;;;;;;;;;;4974821;28;20097;-68
2022/02/16 01:41:18;;;;;;;5.53;1.13;;;;;;;;;;4974661;28;20070;-68
2022/02/16 01:43:52;;;;;;;2.10;0.70;;;;;;;;;;4989242;28;20560;-68
2022/02/16 01:46:19;;;;;;;2.65;0.88;;;;;;;;;;4974556;28;20054;-68
2022/02/16 01:48:46;;;;;;;4.65;1.02;;;;;;;;;;4989582;28;20067;-68
2022/02/16 01:51:12;;;;;;;0.70;0.45;;;;;;;;;;4974412;28;20113;-69
2022/02/16 01:53:39;;;;;;;3.30;0.90;;;;;;;;;;4974356;28;20090;-68
2022/02/16 01:56:06;;;;;;;2.78;0.70;;;;;;;;;;4974530;28;20051;-68
2022/02/16 01:58:34;;;;;;;3.83;1.08;;;;;;;;;;4974337;28;20483;-68
2022/02/16 02:01:01;;;;;;;1.73;0.77;;;;;;;;;;4989160;28;20129;-68
2022/02/16 02:03:29;;;;;;;2.55;0.80;;;;;;;;;;4988611;28;20051;-68
2022/02/16 02:05:56;;;;;;;5.97;1.13;;;;;;;;;;4974424;28;20109;-68
2022/02/16 02:08:24;;;;;;;3.00;0.90;;;;;;;;;;4974274;28;20055;-68
2022/02/16 02:10:51;;;;;;;2.42;0.70;;;;;;;;;;4974165;28;20395;-68
2022/02/16 02:13:19;;;;;;;3.40;0.85;;;;;;;;;;4973555;28;20051;-68
2022/02/16 02:15:45;;;;;;;2.58;0.82;;;;;;;;;;4974163;28;20565;-68
2022/02/16 02:18:17;;;;;;;3.22;0.70;;;;;;;;;;4974209;28;20054;-68
2022/02/16 02:20:43;;;;;;;3.17;1.15;;;;;;;;;;4974022;28;20101;-68
2022/02/16 02:23:11;;;;;;;1.88;1.00;;;;;;;;;;4973716;28;20086;-68
2022/02/16 02:25:43;;;;;;;3.78;0.90;;;;;;;;;;4974218;28;20063;-68
2022/02/16 02:28:10;;;;;;;3.58;1.02;;;;;;;;;;4973889;28;20055;-68
2022/02/16 02:30:37;;;;;;;1.10;0.80;;;;;;;;;;4972814;28;20047;-68
2022/02/16 02:33:04;;;;;;;4.38;0.77;;;;;;;;;;4973514;28;20054;-68
2022/02/16 02:35:30;;;;;;;3.45;0.70;;;;;;;;;;4973861;28;20414;-69
2022/02/16 02:37:57;;;;;;;2.40;1.40;;;;;;;;;;4973597;28;20058;-69
2022/02/16 02:40:23;;;;;;;2.45;1.13;;;;;;;;;;4973630;28;20050;-69
2022/02/16 02:42:50;;;;;;;2.60;1.10;;;;;;;;;;4973379;28;20109;-68
2022/02/16 02:45:17;;;;;;;2.55;0.80;;;;;;;;;;4973635;28;20055;-68
2022/02/16 02:47:43;;;;;;;1.88;1.00;;;;;;;;;;4973683;28;20050;-68
2022/02/16 02:50:10;;;;;;;3.88;0.82;;;;;;;;;;4973560;28;20047;-68
2022/02/16 02:52:36;;;;;;;3.65;0.98;;;;;;;;;;4973306;28;20054;-68
2022/02/16 02:55:04;;;;;;;6.15;1.35;;;;;;;;;;4972879;28;20078;-68
2022/02/16 02:57:31;;;;;;;2.47;0.80;;;;;;;;;;4987719;28;20510;-68
2022/02/16 02:59:58;;;;;;;2.88;1.00;;;;;;;;;;4973162;28;20054;-68
2022/02/16 03:02:26;;;;;;;1.92;0.65;;;;;;;;;;4972896;28;20046;-68
2022/02/16 03:04:53;;;;;;;1.88;0.82;;;;;;;;;;4973020;28;20069;-68
2022/02/16 03:07:20;;;;;;;4.78;1.58;;;;;;;;;;4959579;28;20516;-68
2022/02/16 03:09:46;;;;;;;2.17;0.70;;;;;;;;;;4953843;29;20051;-68
2022/02/16 03:12:16;;;;;;;2.13;0.73;;;;;;;;;;4953717;28;20464;-68
2022/02/16 03:14:46;;;;;;;1.35;1.02;;;;;;;;;;4973100;28;20058;-68
2022/02/16 03:17:13;;;;;;;2.75;0.90;;;;;;;;;;4973109;28;20399;-68
2022/02/16 03:19:40;;;;;;;3.80;0.70;;;;;;;;;;4973223;28;20095;-68
2022/02/16 03:22:07;;;;;;;4.72;0.60;;;;;;;;;;4973361;28;20094;-68
2022/02/16 03:24:34;;;;;;;3.03;0.60;;;;;;;;;;5009705;23;20393;-66
2022/02/16 03:27:01;;;;;;;3.88;0.60;;;;;;;;;;4991534;28;20472;-68
2022/02/16 03:29:27;;;;;;;2.85;0.90;;;;;;;;;;4992258;28;20219;-68
2022/02/16 03:31:55;;;;;;;2.92;0.50;;;;;;;;;;4992188;28;20046;-67
2022/02/16 03:34:22;;;;;;;1.80;0.55;;;;;;;;;;4991957;28;20446;-68
2022/02/16 03:36:48;;;;;;;0.93;0.45;;;;;;;;;;4992376;28;20112;-68
2022/02/16 03:39:15;;;;;;;0.90;0.55;;;;;;;;;;4992257;28;20050;-68
2022/02/16 03:41:41;;;;;;;3.65;0.80;;;;;;;;;;4993732;28;20109;-68
2022/02/16 03:44:08;;;;;;;2.70;0.65;;;;;;;;;;4996057;28;20081;-68
2022/02/16 03:46:35;;;;;;;5.65;1.08;;;;;;;;;;4996248;28;20050;-68
2022/02/16 03:49:01;;;;;;;2.22;0.40;;;;;;;;;;4996242;28;20108;-68
2022/02/16 03:51:28;;;;;;;0.73;0.45;;;;;;;;;;4996128;28;20050;-67
2022/02/16 03:53:55;;;;;;;2.65;0.60;;;;;;;;;;4995827;28;20050;-68
2022/02/16 03:56:21;;;;;;;3.33;0.43;;;;;;;;;;4996091;28;20108;-68
2022/02/16 03:58:48;;;;;;;2.85;0.47;;;;;;;;;;4996175;28;20556;-68
2022/02/16 04:01:14;;;;;;;1.15;0.60;;;;;;;;;;4996225;28;20046;-68
2022/02/16 04:03:41;;;;;;;0.38;0.38;;;;;;;;;;4995769;28;20137;-68
2022/02/16 04:06:08;;;;;;;0.95;0.50;;;;;;;;;;4996265;28;20058;-68
2022/02/16 04:08:35;;;;;;;1.83;0.60;;;;;;;;;;4995846;28;20105;-68
2022/02/16 04:11:01;;;;;;;0.65;0.50;;;;;;;;;;4995764;28;20089;-68
2022/02/16 04:13:28;;;;;;;1.73;0.40;;;;;;;;;;4995632;28;20054;-68
2022/02/16 04:15:55;;;;;;;2.05;0.40;;;;;;;;;;4994562;28;20046;-68
2022/02/16 04:18:21;;;;;;;3.00;0.60;;;;;;;;;;4995640;28;20054;-68
2022/02/16 04:20:48;;;;;;;0.75;0.45;;;;;;;;;;4995684;28;20070;-67
2022/02/16 04:23:15;;;;;;;2.65;0.63;;;;;;;;;;4995293;28;20096;-67
2022/02/16 04:25:42;;;;;;;0.63;0.47;;;;;;;;;;4995422;28;20418;-67
2022/02/16 04:28:09;;;;;;;1.65;0.45;;;;;;;;;;4995612;28;20100;-67
2022/02/16 04:30:35;;;;;;;1.50;0.47;;;;;;;;;;4995299;28;20485;-67
2022/02/16 04:33:02;;;;;;;4.28;0.40;;;;;;;;;;4995226;28;20054;-67
2022/02/16 04:35:29;;;;;;;1.23;0.32;;;;;;;;;;4995272;28;20054;-67
2022/02/16 04:37:55;;;;;;;0.77;0.40;;;;;;;;;;4995500;28;20046;-67
2022/02/16 04:40:22;;;;;;;1.10;0.40;;;;;;;;;;4995272;28;20120;-68
2022/02/16 04:42:48;;;;;;;1.80;0.57;;;;;;;;;;4995126;28;20050;-68
2022/02/16 04:45:15;;;;;;;2.38;0.82;;;;;;;;;;4995489;28;20058;-68
2022/02/16 04:47:43;;;;;;;3.30;0.40;;;;;;;;;;5010052;28;20122;-69
2022/02/16 04:50:10;;;;;;;0.50;0.25;;;;;;;;;;4995242;28;20046;-67
2022/02/16 04:52:37;;;;;;;4.55;0.40;;;;;;;;;;4993984;28;20054;-69
2022/02/16 04:55:05;;;;;;;1.50;0.20;;;;;;;;;;4995065;28;20054;-68
2022/02/16 04:57:32;;;;;;;1.33;0.35;;;;;;;;;;4994909;28;20424;-69
2022/02/16 04:59:59;;;;;;;1.17;0.40;;;;;;;;;;4994902;28;20455;-68
2022/02/16 05:02:26;;;;;;;1.20;0.50;;;;;;;;;;4994692;28;20120;-68
2022/02/16 05:04:53;;;;;;;1.38;0.40;;;;;;;;;;4994930;28;20108;-69
2022/02/16 05:07:21;;;;;;;0.73;0.38;;;;;;;;;;4994588;28;20108;-68
2022/02/16 05:09:49;;;;;;;0.52;0.52;;;;;;;;;;4994964;28;20184;-68
2022/02/16 05:12:16;;;;;;;1.65;0.70;;;;;;;;;;4994373;28;20046;-68
2022/02/16 05:14:43;;;;;;;1.45;0.38;;;;;;;;;;4994633;28;20054;-68
2022/02/16 05:17:09;;;;;;;0.25;0.20;;;;;;;;;;4994703;28;20420;-68
2022/02/16 05:19:36;;;;;;;0.30;0.20;;;;;;;;;;4994557;28;20055;-68
2022/02/16 05:22:03;;;;;;;1.90;0.40;;;;;;;;;;4994478;28;20039;-69
2022/02/16 05:24:30;;;;;;;2.20;0.20;;;;;;;;;;4995797;28;20054;-67
2022/02/16 05:26:56;;;;;;;1.63;0.50;;;;;;;;;;4994281;28;20097;-68
2022/02/16 05:29:23;;;;;;;1.75;0.50;;;;;;;;;;4994376;28;20496;-67
2022/02/16 05:31:49;;;;;;;2.53;0.50;;;;;;;;;;4994493;28;20077;-67
2022/02/16 05:34:19;;;;;;;1.95;0.47;;;;;;;;;;4993936;28;20055;-67
2022/02/16 05:36:46;;;;;;;0.95;0.57;;;;;;;;;;4994328;28;20054;-67
2022/02/16 05:39:12;;;;;;;3.05;2.75;;;;;;;;;;4994289;28;20472;-67
2022/02/16 05:41:39;;;;;;;1.48;0.47;;;;;;;;;;4994126;28;20054;-68
2022/02/16 05:44:06;;;;;;;2.42;0.45;;;;;;;;;;4993920;28;20108;-67
2022/02/16 05:46:33;;;;;;;2.13;0.30;;;;;;;;;;4994256;28;20054;-67
2022/02/16 05:48:59;;;;;;;0.38;0.30;;;;;;;;;;4993931;28;20493;-68
2022/02/16 05:51:26;;;;;;;1.58;0.40;;;;;;;;;;4993783;28;20073;-68
2022/02/16 05:53:56;;;;;;;0.95;0.30;;;;;;;;;;4993700;28;20077;-67
2022/02/16 05:56:23;;;;;;;1.05;0.32;;;;;;;;;;4993670;28;20054;-67
2022/02/16 05:58:49;;;;;;;0.95;0.38;;;;;;;;;;4993712;28;20051;-67
2022/02/16 06:01:16;;;;;;;0.55;0.20;;;;;;;;;;4993768;28;20097;-68
2022/02/16 06:03:44;;;;;;;0.73;0.30;;;;;;;;;;4993445;28;20054;-67
2022/02/16 06:06:10;;;;;;;4.00;0.77;;;;;;;;;;4993676;28;20050;-68
2022/02/16 06:08:37;;;;;;;0.68;0.32;;;;;;;;;;4993679;28;20050;-68
2022/02/16 06:11:04;;;;;;;1.25;0.35;;;;;;;;;;4993645;28;20563;-68
2022/02/16 06:13:30;;;;;;;2.17;0.55;;;;;;;;;;4993459;28;20109;-68
2022/02/16 06:15:57;;;;;;;1.42;0.50;;;;;;;;;;4993788;28;20089;-68
2022/02/16 06:18:24;;;;;;;2.55;0.50;;;;;;;;;;4993838;28;20100;-67
2022/02/16 06:20:51;;;;;;;1.90;0.55;;;;;;;;;;4993592;28;20058;-68
2022/02/16 06:23:18;;;;;;;3.42;0.35;;;;;;;;;;4992961;28;20205;-67
2022/02/16 06:25:44;;;;;;;0.68;0.30;;;;;;;;;;4993890;28;20056;-68
2022/02/16 06:28:11;;;;;;;2.13;0.20;;;;;;;;;;5010008;28;20099;-67
2022/02/16 06:30:37;;;;;;;0.38;0.30;;;;;;;;;;4996064;28;20046;-68
2022/02/16 06:33:04;;;;;;;0.68;0.30;;;;;;;;;;4992907;28;20572;-67
2022/02/16 06:35:31;;;;;;;0.28;0.28;;;;;;;;;;4993048;28;20274;-68
2022/02/16 06:37:57;;;;;;;0.65;0.20;;;;;;;;;;4993194;28;20046;-68
2022/02/16 06:40:27;;;;;;;0.52;0.40;;;;;;;;;;4992949;28;20108;-68
2022/02/16 06:42:54;;;;;;;0.95;0.40;;;;;;;;;;4973471;28;20101;-69
2022/02/16 06:45:21;;;;;;;0.40;0.28;;;;;;;;;;4973449;28;20050;-68
2022/02/16 06:47:47;;;;;;;1.17;0.30;;;;;;;;;;4973537;28;20465;-67
2022/02/16 06:50:14;;;;;;;1.13;0.50;;;;;;;;;;4973435;28;20113;-69
2022/02/16 06:52:40;;;;;;;4.47;0.43;;;;;;;;;;4973193;28;20110;-67
2022/02/16 06:55:07;;;;;;;0.88;0.68;;;;;;;;;;4980289;28;20077;-69
2022/02/16 06:57:34;;;;;;;1.33;0.30;;;;;;;;;;4992695;28;20050;-68
2022/02/16 07:00:01;;;;;;;0.65;0.20;;;;;;;;;;4992893;28;20046;-67
2022/02/16 07:02:28;;;;;;;0.50;0.28;;;;;;;;;;4992539;28;20042;-68
2022/02/16 07:04:55;;;;;;;0.22;0.20;;;;;;;;;;4992662;28;20050;-67
2022/02/16 07:07:22;;;;;;;1.58;0.30;;;;;;;;;;4984213;28;20059;-67
2022/02/16 07:09:53;;;;;;;0.30;0.30;;;;;;;;;;4986519;28;20042;-66
2022/02/16 07:12:20;;;;;;;1.75;0.38;;;;;;;;;;4987029;28;20046;-66
2022/02/16 07:14:50;;;;;;;2.97;0.30;;;;;;;;;;4987615;28;20050;-66
2022/02/16 07:17:19;;;;;;;0.30;0.20;;;;;;;;;;4986941;28;20058;-66
2022/02/16 07:19:46;;;;;;;1.23;0.50;;;;;;;;;;4989035;28;20406;-67
2022/02/16 07:22:13;;;;;;;0.93;0.30;;;;;;;;;;4988692;28;20473;-67
2022/02/16 07:24:39;;;;;;;8.25;0.60;;;;;;;;;;4987074;28;20062;-66
2022/02/16 07:27:06;;;;;;;0.45;0.20;;;;;;;;;;4989051;28;20128;-66
2022/02/16 07:29:32;;;;;;;0.95;0.30;;;;;;;;;;4988133;28;20046;-67
2022/02/16 07:31:59;;;;;;;0.98;0.40;;;;;;;;;;4988503;28;20116;-67
2022/02/16 07:34:29;;;;;;;1.30;0.30;;;;;;;;;;4988332;28;20117;-67
2022/02/16 07:36:55;;;;;;;1.00;0.30;;;;;;;;;;4988337;28;20050;-66
2022/02/16 07:39:27;;;;;;;0.65;0.30;;;;;;;;;;4988437;28;20096;-66
2022/02/16 07:41:54;;;;;;;1.10;0.45;;;;;;;;;;4985448;28;20339;-67
2022/02/16 07:44:21;;;;;;;0.57;0.50;;;;;;;;;;4988036;28;20074;-67
2022/02/16 07:46:48;;;;;;;0.95;0.40;;;;;;;;;;4988749;28;20050;-66
2022/02/16 07:49:14;;;;;;;1.50;0.57;;;;;;;;;;4987399;28;20050;-66
2022/02/16 07:51:41;;;;;;;1.10;0.30;;;;;;;;;;4989057;28;20054;-66
2022/02/16 07:54:07;;;;;;;2.22;0.52;;;;;;;;;;4989139;28;20054;-67
2022/02/16 07:56:35;;;;;;;0.70;0.40;;;;;;;;;;4988415;28;20073;-67
2022/02/16 07:59:01;;;;;;;0.77;0.40;;;;;;;;;;4989061;28;20057;-67
2022/02/16 08:01:28;;;;;;;2.70;0.60;;;;;;;;;;4987603;28;20576;-67
2022/02/16 08:04:15;;;;;;;1.02;0.47;;;;;;;;;;4987887;28;20137;-67
2022/02/16 08:06:42;;;;;;;1.55;0.40;;;;;;;;;;4985955;28;20489;-67
2022/02/16 08:09:10;;;;;;;2.38;0.50;;;;;;;;;;4988242;28;20148;-66
2022/02/16 08:11:37;;;;;;;1.60;0.52;;;;;;;;;;4988677;28;20149;-65
2022/02/16 08:14:04;;;;;;;0.68;0.40;;;;;;;;;;4988153;28;20108;-67
2022/02/16 08:16:31;;;;;;;1.65;0.30;;;;;;;;;;4987335;28;20109;-66
2022/02/16 08:18:57;;;;;;;1.65;0.40;;;;;;;;;;4988414;28;20148;-65
2022/02/16 08:21:24;;;;;;;0.40;0.40;;;;;;;;;;4988520;28;20058;-67
2022/02/16 08:23:51;;;;;;;1.17;0.50;;;;;;;;;;4987805;28;20144;-68
2022/02/16 08:26:17;;;;;;;0.50;0.50;;;;;;;;;;4988319;28;20113;-67
2022/02/16 08:28:44;;;;;;;3.63;0.75;;;;;;;;;;4990904;28;20469;-67
2022/02/16 08:31:10;;;;;;;1.38;0.77;;;;;;;;;;4991893;28;20046;-68
2022/02/16 08:33:37;;;;;;;0.55;0.43;;;;;;;;;;4990840;28;20097;-68
2022/02/16 08:36:05;;;;;;;0.63;0.50;;;;;;;;;;4988723;28;20405;-67
2022/02/16 08:38:31;;;;;;;3.40;0.47;;;;;;;;;;4991751;28;20055;-67
2022/02/16 08:40:58;;;;;;;1.73;0.50;;;;;;;;;;4991428;28;20108;-68
2022/02/16 08:43:26;;;;;;;0.50;0.45;;;;;;;;;;4991497;28;20050;-67
2022/02/16 08:45:54;;;;;;;3.22;0.60;;;;;;;;;;4991181;28;20045;-67
2022/02/16 08:48:23;;;;;;;0.57;0.47;;;;;;;;;;4991316;28;20055;-67
2022/02/16 08:50:53;;;;;;;1.10;0.47;;;;;;;;;;4991518;28;20058;-67
2022/02/16 08:53:22;;;;;;;3.67;0.60;;;;;;;;;;4991044;28;20059;-66
2022/02/16 08:55:54;;;;;;;1.20;0.57;;;;;;;;;;4991281;28;20050;-68
2022/02/16 08:58:21;;;;;;;1.25;0.50;;;;;;;;;;4990904;28;20116;-66
2022/02/16 09:00:49;;;;;;;2.38;0.60;;;;;;;;;;4990560;28;20057;-66
2022/02/16 09:03:16;;;;;;;1.63;0.55;;;;;;;;;;4990860;28;20105;-67
2022/02/16 09:05:43;;;;;;;1.23;0.55;;;;;;;;;;4991137;28;20050;-68
2022/02/16 09:08:09;;;;;;;1.95;0.60;;;;;;;;;;4990601;28;20051;-68
2022/02/16 09:10:36;;;;;;;1.33;0.68;;;;;;;;;;4989280;28;20046;-66
2022/02/16 09:13:05;;;;;;;1.05;0.55;;;;;;;;;;4990881;28;20177;-66
2022/02/16 09:15:31;;;;;;;2.20;0.60;;;;;;;;;;4990860;28;20054;-67
2022/02/16 09:17:58;;;;;;;0.77;0.60;;;;;;;;;;4990811;28;20050;-67
2022/02/16 09:20:25;;;;;;;1.38;0.63;;;;;;;;;;4990741;28;20058;-67
2022/02/16 09:22:52;;;;;;;3.13;0.60;;;;;;;;;;4990450;28;20046;-66
2022/02/16 09:25:19;;;;;;;0.85;0.52;;;;;;;;;;5005752;23;20444;-73
2022/02/16 09:27:47;;;;;;;1.05;0.55;;;;;;;;;;4965582;28;20054;-72
2022/02/16 09:30:14;;;;;;;1.35;0.50;;;;;;;;;;4971604;28;20054;-70
2022/02/16 09:32:44;;;;;;;1.45;0.70;;;;;;;;;;4973061;28;20057;-71
2022/02/16 09:35:11;;;;;;;0.85;0.40;;;;;;;;;;4947069;29;20055;-72
2022/02/16 09:37:38;;;;;;;0.88;0.70;;;;;;;;;;4937140;29;20051;-71
2022/02/16 09:40:05;;;;;;;1.58;0.50;;;;;;;;;;4953545;28;20044;-70
2022/02/16 09:42:33;;;;;;;0.45;0.45;;;;;;;;;;4953773;28;20047;-69
2022/02/16 09:45:02;;;;;;;2.60;0.60;;;;;;;;;;4954344;28;20055;-70
2022/02/16 09:47:30;;;;;;;1.02;0.43;;;;;;;;;;4954044;28;20561;-71
2022/02/16 09:49:58;;;;;;;1.05;0.65;;;;;;;;;;4953984;28;20388;-73
2022/02/16 09:52:25;;;;;;;0.80;0.57;;;;;;;;;;4952352;29;20074;-72
2022/02/16 09:54:52;;;;;;;2.20;0.40;;;;;;;;;;4952618;28;20126;-71
2022/02/16 09:57:20;;;;;;;1.23;0.20;;;;;;;;;;4953586;29;20056;-67
2022/02/16 09:59:53;;;;;;;1.02;0.45;;;;;;;;;;4953697;29;20051;-68
2022/02/16 10:02:20;;;;;;;0.47;0.28;;;;;;;;;;4953103;28;20114;-70
2022/02/16 10:04:57;;;;;;;0.73;0.20;;;;;;;;;;4936585;29;20051;-68
2022/02/16 10:07:30;;;;;;;1.25;0.40;;;;;;;;;;4953145;29;20051;-70
2022/02/16 10:10:19;;;;;;;0.90;0.70;;;;;;;;;;4950704;29;20047;-71
2022/02/16 10:12:48;;;;;;;1.67;0.43;;;;;;;;;;4949668;29;20552;-71
2022/02/16 10:15:16;;;;;;;0.50;0.30;;;;;;;;;;4953414;28;20106;-70
2022/02/16 10:17:43;;;;;;;0.47;0.25;;;;;;;;;;4953576;28;20055;-70
2022/02/16 10:20:12;;;;;;;0.60;0.28;;;;;;;;;;4953282;28;20051;-70
2022/02/16 10:22:44;;;;;;;0.50;0.30;;;;;;;;;;4952784;28;20051;-74
2022/02/16 10:25:15;;;;;;;0.68;0.40;;;;;;;;;;4953166;28;20109;-73
2022/02/16 10:28:07;;;;;;;0.30;0.30;;;;;;;;;;4953350;29;20453;-73
2022/02/16 10:30:35;;;;;;;0.55;0.35;;;;;;;;;;4967312;28;20058;-71
2022/02/16 10:33:18;;;;;;;0.70;0.50;;;;;;;;;;4952828;28;20497;-72
2022/02/16 10:35:46;;;;;;;0.77;0.40;;;;;;;;;;4952743;28;20142;-72
2022/02/16 10:38:13;;;;;;;0.80;0.30;;;;;;;;;;4952827;28;20050;-72
2022/02/16 10:40:40;;;;;;;0.30;0.30;;;;;;;;;;4967787;28;20530;-73
2022/02/16 10:43:07;;;;;;;0.52;0.30;;;;;;;;;;4935460;29;20098;-72
2022/02/16 10:45:45;;;;;;;0.20;0.20;;;;;;;;;;4951386;28;20047;-71
2022/02/16 10:48:12;;;;;;;0.55;0.40;;;;;;;;;;4952442;28;20051;-71
2022/02/16 10:50:47;;;;;;;0.82;0.40;;;;;;;;;;4951553;28;20051;-69
2022/02/16 10:53:14;;;;;;;0.10;0.10;;;;;;;;;;4952671;28;20062;-70
2022/02/16 10:55:42;;;;;;;0.65;0.30;;;;;;;;;;4966940;28;20055;-69
2022/02/16 10:58:12;;;;;;;0.20;0.20;;;;;;;;;;4952520;28;20594;-69
2022/02/16 11:00:40;;;;;;;0.20;0.20;;;;;;;;;;4950838;29;20059;-67
2022/02/16 11:03:08;;;;;;;0.28;0.20;;;;;;;;;;4952260;28;20044;-68
2022/02/16 11:05:44;;;;;;;0.47;0.20;;;;;;;;;;4952255;28;20094;-69
2022/02/16 11:08:13;;;;;;;0.30;0.28;;;;;;;;;;4952216;28;20133;-68
2022/02/16 11:10:42;;;;;;;0.28;0.20;;;;;;;;;;4952617;28;20525;-68
2022/02/16 11:13:09;;;;;;;0.30;0.28;;;;;;;;;;4950689;28;20051;-67
2022/02/16 11:15:38;;;;;;;0.40;0.30;;;;;;;;;;4951923;28;20102;-66
2022/02/16 11:18:12;;;;;;;0.20;0.10;;;;;;;;;;4935324;29;20458;-66
2022/02/16 11:20:39;;;;;;;1.20;0.20;;;;;;;;;;4950629;29;20553;-67
2022/02/16 11:23:06;;;;;;;1.13;0.25;;;;;;;;;;4952432;28;20410;-68
2022/02/16 11:25:40;;;;;;;0.30;0.20;;;;;;;;;;4951782;28;20051;-69
2022/02/16 11:28:11;;;;;;;0.38;0.30;;;;;;;;;;4951195;29;20047;-66
2022/02/16 11:30:46;;;;;;;0.43;0.35;;;;;;;;;;4951720;29;20138;-67
2022/02/16 11:33:21;;;;;;;0.47;0.20;;;;;;;;;;4950562;29;20425;-65
2022/02/16 11:35:59;;;;;;;0.43;0.30;;;;;;;;;;4951953;28;20490;-68
2022/02/16 11:38:43;;;;;;;1.48;0.30;;;;;;;;;;4952028;28;20055;-67
2022/02/16 11:41:28;;;;;;;0.40;0.20;;;;;;;;;;4951914;29;20051;-69
2022/02/16 11:44:02;;;;;;;1.80;1.15;;;;;;;;;;4951678;28;20075;-70
2022/02/16 11:46:39;;;;;;;5.00;3.42;;;;;;;;;;4947042;28;20051;-71
2022/02/16 11:49:06;;;;;;;0.60;0.60;;;;;;;;;;4951292;28;20051;-74
2022/02/16 11:51:35;;;;;;;0.60;0.60;;;;;;;;;;4950699;28;20098;-74
2022/02/16 11:54:40;;;;;;;0.40;0.40;;;;;;;;;;4948805;28;20043;-69
2022/02/16 11:57:38;;;;;;;0.40;0.20;;;;;;;;;;4951997;28;20043;-74
2022/02/16 12:00:18;;;;;;;0.75;0.47;;;;;;;;;;4952251;28;20069;-69
2022/02/16 12:03:05;;;;;;;1.05;0.63;;;;;;;;;;4951591;28;20058;-70
2022/02/16 12:06:11;;;;;;;0.68;0.47;;;;;;;;;;4955535;28;20053;-69
2022/02/16 12:08:47;;;;;;;0.70;0.60;;;;;;;;;;4955520;28;20105;-69
2022/02/16 12:11:21;;;;;;;2.38;0.50;;;;;;;;;;4955298;28;20051;-71
2022/02/16 12:14:02;;;;;;;0.30;0.30;;;;;;;;;;4955497;28;20070;-68
2022/02/16 12:16:36;;;;;;;1.27;0.47;;;;;;;;;;4955616;28;20054;-71
2022/02/16 12:19:07;;;;;;;0.57;0.57;;;;;;;;;;4954461;28;20051;-69
2022/02/16 12:21:39;;;;;;;2.28;0.60;;;;;;;;;;4953774;28;20978;-69
2022/02/16 12:24:08;;;;;;;0.57;0.55;;;;;;;;;;4955206;28;20051;-70
2022/02/16 12:26:45;;;;;;;1.17;1.02;;;;;;;;;;4953556;29;20518;-66
2022/02/16 12:29:17;;;;;;;1.73;0.70;;;;;;;;;;4954037;29;20047;-69
2022/02/16 12:31:52;;;;;;;1.08;0.82;;;;;;;;;;4953430;29;20054;-67
2022/02/16 12:34:25;;;;;;;1.08;0.57;;;;;;;;;;4954800;28;20079;-68
2022/02/16 12:36:55;;;;;;;0.77;0.60;;;;;;;;;;4954005;29;20237;-71
2022/02/16 12:39:29;;;;;;;2.67;0.68;;;;;;;;;;4954942;28;20047;-69
2022/02/16 12:42:09;;;;;;;0.70;0.70;;;;;;;;;;4954306;28;20063;-67
2022/02/16 12:44:38;;;;;;;0.35;0.30;;;;;;;;;;4951394;28;20052;-67
2022/02/16 12:47:06;;;;;;;0.85;0.85;;;;;;;;;;4954287;29;20062;-66
2022/02/16 12:49:33;;;;;;;1.27;0.77;;;;;;;;;;4954272;28;20506;-66
2022/02/16 12:52:01;;;;;;;0.50;0.40;;;;;;;;;;4955071;28;20399;-66
2022/02/16 12:54:31;;;;;;;0.93;0.30;;;;;;;;;;4954325;28;20047;-68
2022/02/16 12:57:05;;;;;;;0.47;0.40;;;;;;;;;;4954729;28;20078;-68
2022/02/16 13:00:46;;;;;;;1.27;0.70;;;;;;;;;;4954385;29;20050;-70
2022/02/16 13:02:27;;;;;;;0.43;0.40;;;;;;;;;;4954278;28;20051;-69
2022/02/16 13:04:55;;;;;;;0.63;0.45;;;;;;;;;;4950770;28;20043;-67
2022/02/16 13:07:24;;;;;;;0.90;0.60;;;;;;;;;;4954311;28;20051;-67
2022/02/16 13:09:53;;;;;;;1.75;0.60;;;;;;;;;;4953051;29;20454;-68
2022/02/16 13:12:32;;;;;;;1.60;0.98;;;;;;;;;;4953080;29;20047;-68
2022/02/16 13:15:04;;;;;;;0.80;0.45;;;;;;;;;;4953020;28;20046;-71
2022/02/16 13:17:38;;;;;;;0.20;0.20;;;;;;;;;;4951111;29;20114;-72
2022/02/16 13:20:19;;;;;;;1.27;0.63;;;;;;;;;;4960378;28;20055;-68
2022/02/16 13:23:13;;;;;;;3.28;1.48;;;;;;;;;;4954087;29;20051;-72
2022/02/16 13:25:42;;;;;;;1.05;0.70;;;;;;;;;;4930225;29;20510;-67
2022/02/16 13:28:18;;;;;;;0.60;0.60;;;;;;;;;;4954326;29;20105;-73
2022/02/16 13:30:50;;;;;;;0.25;0.25;;;;;;;;;;4935528;29;20517;-73
2022/02/16 13:33:34;;;;;;;1.23;0.38;;;;;;;;;;4938310;29;20052;-71
2022/02/16 13:36:26;;;;;;;0.30;0.30;;;;;;;;;;4954049;28;20137;-73
2022/02/16 13:39:16;;;;;;;0.47;0.35;;;;;;;;;;4950958;29;20047;-68
2022/02/16 13:42:00;;;;;;;0.60;0.32;;;;;;;;;;4953731;29;20058;-69
2022/02/16 13:44:28;;;;;;;0.50;0.50;;;;;;;;;;4952835;28;20051;-70
2022/02/16 13:46:58;;;;;;;0.50;0.50;;;;;;;;;;4953118;28;20082;-67
2022/02/16 13:49:26;;;;;;;0.40;0.40;;;;;;;;;;4950318;29;20051;-73
2022/02/16 13:51:56;;;;;;;0.70;0.40;;;;;;;;;;4968638;28;20054;-73
2022/02/16 13:54:27;;;;;;;0.50;0.32;;;;;;;;;;4952928;28;20055;-68
2022/02/16 13:57:14;;;;;;;0.20;0.20;;;;;;;;;;4953510;28;20479;-68
2022/02/16 14:00:19;;;;;;;1.30;0.40;;;;;;;;;;4953529;28;20051;-66
2022/02/16 14:03:04;;;;;;;0.30;0.30;;;;;;;;;;4923765;28;20047;-66
2022/02/16 14:05:30;;;;;;;1.50;0.55;;;;;;;;;;4953024;28;20144;-69
2022/02/16 14:08:08;;;;;;;1.17;0.40;;;;;;;;;;4953324;29;20062;-68
2022/02/16 14:10:36;;;;;;;0.55;0.40;;;;;;;;;;4953470;28;20059;-67
2022/02/16 14:13:04;;;;;;;0.70;0.70;;;;;;;;;;4953431;28;20047;-69
2022/02/16 14:15:31;;;;;;;0.30;0.30;;;;;;;;;;4949917;28;20055;-68
2022/02/16 14:17:58;;;;;;;0.40;0.30;;;;;;;;;;4952126;28;20051;-68
2022/02/16 14:20:30;;;;;;;0.47;0.23;;;;;;;;;;4952616;28;20107;-68
2022/02/16 14:22:57;;;;;;;0.63;0.63;;;;;;;;;;4952059;28;20094;-67
2022/02/16 14:25:25;;;;;;;0.20;0.20;;;;;;;;;;4952731;28;20138;-68
2022/02/16 14:27:52;;;;;;;0.13;0.13;;;;;;;;;;4953119;28;20047;-68
2022/02/16 14:30:20;;;;;;;0.52;0.30;;;;;;;;;;4953052;28;20062;-68
2022/02/16 14:32:48;;;;;;;0.77;0.50;;;;;;;;;;4953060;28;20055;-68
2022/02/16 14:35:16;;;;;;;1.02;0.30;;;;;;;;;;4952823;28;20051;-70
2022/02/16 14:37:45;;;;;;;0.40;0.30;;;;;;;;;;4953123;28;20051;-68
2022/02/16 14:40:14;;;;;;;1.23;0.40;;;;;;;;;;4952727;29;20134;-69
2022/02/16 14:42:42;;;;;;;1.10;0.30;;;;;;;;;;4952772;28;20521;-68
2022/02/16 14:45:11;;;;;;;0.55;0.50;;;;;;;;;;4953549;28;20062;-69
2022/02/16 14:47:41;;;;;;;0.30;0.20;;;;;;;;;;4953289;29;20059;-67
2022/02/16 14:50:09;;;;;;;1.42;0.30;;;;;;;;;;4949523;28;20059;-69
2022/02/16 14:52:38;;;;;;;2.03;0.20;;;;;;;;;;4951847;28;20055;-70
2022/02/16 14:55:06;;;;;;;0.95;0.40;;;;;;;;;;4947686;28;20567;-68